Terminal Aerodrome Forecast
Issued by NWS Wichita, KS

Home | Current Version | Previous Version | Graphics & Text | Print | Product List | Glossary On
Versions: 1 2 3 4 5 6 7 8 9 10 11 12 13 14 15 16
913
FTUS43 KICT 180552 AAB
TAFICT
TAF AMD
KICT 180552Z 1806/1906 31030G39KT 4SM HZ BKN028
      TEMPO 1806/1809 6SM HZ SCT030
     FM180900 32026G35KT P6SM SKC
     FM182300 34017G26KT P6SM SKC
     FM190300 36009KT P6SM SKC=

USA.gov is the U.S. government's official web portal to all federal, state and local government web resources and services.